LPMT

Details ICAO LPMT
Name MONTIJO
Region Portugal
Timezone Europe/Lisbon (UTC+1.0)
Plans Departing 47
Arriving 18
Stats Elevation 46 ft / 14 m (AMSL)
Location 38.709035° -9.030348°
Runways 2
Magnetic Variation 2.271° W
Sunrise 2018-05-27 05:17:06 UTC / 2018-05-27 06:17:06 Local
Sunset 2018-05-27 19:52:20 UTC / 2018-05-27 20:52:20 Local
Advertisement - Login to hide

Runways

ID Width Length Bearing (true) Bearing (mag) Surface Threshold Offset Overrun Length
01 148 ft / 45 m 7,203 ft / 2,195 m 6.51° 8.78° Asphalt 0 ft / 0 m 0 ft / 0 m
08 148 ft / 45 m 7,998 ft / 2,438 m 72.35° 74.62° Concrete 0 ft / 0 m 1,608 ft / 490 m
19 148 ft / 45 m 7,203 ft / 2,195 m 186.52° 188.79° Asphalt 0 ft / 0 m 0 ft / 0 m
26 148 ft / 45 m 7,998 ft / 2,438 m 252.37° 254.64° Concrete 0 ft / 0 m 919 ft / 280 m

Map

Weather


0- 5 10 15 20 25 30 35+ Temperature / ° C

Clouds and Precipitation
Forecast for 2018-05-27 00:00 UTC. Updated 4 hours ago

Ground ~20,000 ft ~40,000 ft Winds

METAR

LPMT 270300Z 33006KT CAVOK 15/14 Q1013

TAF

TAF LPMT 261703Z 2618/2718 28005KT 9999 FEW020 BECMG 2618/2620 35005KT PROB40 2700/2706 VRB02KT 2000 BR BKN004 BECMG 2710/2712 35012KT TEMPO 2714/2718 35015G25KT

Frequencies

Tower 122.10 MHz TWR
Tower 134.10 MHz TWR
Warning: Do not use this data for real-world aviation or navigation. No guarantee of current accuracy is given.